Lourdes, Iowa
Current Conditions -  °F | °C
As of 1:35 PM on Friday 28 Nov 2014 (Local Time) from KCCY Reporting Station
Few Clouds Few Clouds  
Wind Chill: 13°   Ceiling: Unl
Heat Index: 25°   Visibility: 10mi
Dew Point: 21°   Wind: 13mph
Humidity: 86%   Direction: 140°SE
Pressure: 29.86"   Gusts: NA
Location:  43.2962°N, 92.3767°W
Report Text: KCCY 281935Z AUTO 14011KT 10SM FEW095 FEW120 M04/M06 A2986 RMK AO2
Loading
Personal Weather Stations






























Interactive Weather Map New forecast layout! Learn more

10-Day Weather Forecast

Advertisements
Track Severe Weather on mobile